Time;durP1;ratioP1;P1;durP2;ratioP2;P2;SDS_P1;SDS_P2;PMS_P1;PMS_P2;Temp;Humidity;BMP_temperature;BMP_pressure;BME280_temperature;BME280_humidity;BME280_pressure;Samples;Min_cycle;Max_cycle;Signal;HPM_P1;HPM_P2
2021/11/12 00:03:26;;;;;;;1.60;1.50;;;3.60;98.20;;;;;;4953954;28;20454;-75
2021/11/12 00:14:20;;;;;;;1.63;1.50;;;3.50;98.20;;;;;;4939998;29;20497;-73
2021/11/12 00:16:46;;;;;;;1.67;1.50;;;3.50;98.20;;;;;;4928773;29;20468;-74
2021/11/12 00:19:15;;;;;;;1.70;1.60;;;3.50;98.20;;;;;;4933133;29;20863;-74
2021/11/12 00:21:43;;;;;;;1.63;1.50;;;3.50;98.20;;;;;;4933601;29;20463;-74
2021/11/12 00:24:10;;;;;;;1.70;1.60;;;3.50;98.20;;;;;;4924792;29;20482;-73
2021/11/12 00:26:37;;;;;;;1.63;1.50;;;3.50;98.20;;;;;;4927969;29;20477;-72
2021/11/12 00:29:05;;;;;;;1.70;1.60;;;3.40;98.20;;;;;;4927758;29;21142;-74
2021/11/12 00:31:38;;;;;;;1.70;1.60;;;3.40;98.20;;;;;;4933963;29;20862;-74
2021/11/12 00:34:40;;;;;;;1.70;1.50;;;3.40;98.20;;;;;;4928343;29;20498;-74
2021/11/12 00:37:12;;;;;;;1.70;1.60;;;3.40;98.20;;;;;;4939100;29;20466;-74
2021/11/12 00:39:42;;;;;;;1.70;1.50;;;3.30;98.20;;;;;;4952112;29;20491;-74
2021/11/12 00:42:13;;;;;;;1.70;1.50;;;3.30;98.20;;;;;;4952183;29;20506;-75
2021/11/12 00:44:44;;;;;;;1.63;1.50;;;3.30;98.20;;;;;;4950988;28;20486;-73
2021/11/12 00:47:21;;;;;;;1.70;1.60;;;3.20;98.20;;;;;;4925979;29;20482;-74
2021/11/12 00:50:03;;;;;;;1.70;1.60;;;3.20;98.20;;;;;;4929291;29;21030;-74
2021/11/12 00:52:42;;;;;;;1.67;1.50;;;3.20;98.20;;;;;;4927495;29;20464;-75
2021/11/12 00:55:10;;;;;;;1.63;1.50;;;3.10;98.20;;;;;;4933694;29;20627;-75
2021/11/12 00:57:37;;;;;;;1.70;1.60;;;3.10;98.20;;;;;;4933219;29;20464;-73
2021/11/12 01:00:06;;;;;;;1.83;1.73;;;3.10;98.20;;;;;;4933080;29;20492;-74
2021/11/12 01:02:34;;;;;;;1.60;1.50;;;3.10;98.20;;;;;;4933127;29;20468;-74
2021/11/12 01:05:01;;;;;;;1.70;1.50;;;3.10;98.20;;;;;;4932893;29;20587;-75
2021/11/12 01:07:29;;;;;;;4.10;3.90;;;3.10;98.20;;;;;;4933910;29;20471;-74
2021/11/12 01:09:57;;;;;;;1.70;1.60;;;3.00;98.20;;;;;;4933681;29;20467;-74
2021/11/12 01:12:24;;;;;;;2.63;2.43;;;3.00;98.20;;;;;;4933532;29;20476;-75
2021/11/12 01:14:52;;;;;;;1.60;1.40;;;3.00;98.20;;;;;;4933335;29;20511;-75
2021/11/12 01:17:18;;;;;;;1.70;1.60;;;3.00;98.20;;;;;;4926108;29;20464;-74
2021/11/12 01:19:47;;;;;;;1.67;1.50;;;3.00;98.20;;;;;;4942625;29;20499;-75
2021/11/12 01:22:14;;;;;;;1.63;1.50;;;3.00;98.20;;;;;;4930209;28;20468;-74
2021/11/12 01:24:41;;;;;;;1.70;1.50;;;3.00;98.20;;;;;;4932976;29;20484;-74
2021/11/12 01:27:08;;;;;;;1.70;1.60;;;3.00;98.20;;;;;;4933633;29;20472;-75
2021/11/12 01:29:35;;;;;;;1.63;1.50;;;2.90;98.20;;;;;;4933512;29;20464;-74
2021/11/12 01:34:44;;;;;;;1.70;1.53;;;2.90;98.20;;;;;;4933346;29;20665;-74
2021/11/12 01:37:12;;;;;;;1.63;1.50;;;2.90;98.20;;;;;;4932829;29;20467;-74
2021/11/12 01:39:39;;;;;;;1.63;1.50;;;2.90;98.20;;;;;;4933365;29;20491;-75
2021/11/12 01:42:06;;;;;;;1.80;1.70;;;2.90;98.20;;;;;;4932676;29;20566;-74
2021/11/12 01:44:36;;;;;;;1.70;1.60;;;2.90;98.20;;;;;;4932496;29;20498;-75
2021/11/12 01:47:16;;;;;;;1.70;1.50;;;2.90;98.20;;;;;;4928308;29;20495;-75
2021/11/12 01:49:45;;;;;;;2.30;2.10;;;2.90;98.20;;;;;;4928427;29;20464;-75
2021/11/12 01:52:17;;;;;;;1.67;1.50;;;2.80;98.20;;;;;;4932471;29;20460;-75
2021/11/12 01:57:34;;;;;;;1.80;1.70;;;2.80;98.20;;;;;;4934120;29;20517;-75
2021/11/12 02:00:02;;;;;;;1.70;1.60;;;2.80;98.20;;;;;;4925234;29;20487;-75
2021/11/12 02:02:29;;;;;;;1.63;1.50;;;2.80;98.20;;;;;;4940986;29;20460;-75
2021/11/12 02:04:56;;;;;;;1.70;1.60;;;2.80;98.20;;;;;;4933217;29;20495;-75
2021/11/12 02:07:24;;;;;;;1.70;1.60;;;2.80;98.20;;;;;;4933197;29;20866;-75
2021/11/12 02:09:51;;;;;;;1.80;1.70;;;2.80;98.20;;;;;;4933484;29;20460;-75
2021/11/12 02:12:22;;;;;;;1.67;1.50;;;2.80;98.20;;;;;;4932973;29;20463;-74
2021/11/12 02:14:51;;;;;;;1.60;1.40;;;2.80;98.20;;;;;;4932944;29;20511;-75
2021/11/12 02:17:21;;;;;;;1.80;1.70;;;2.80;98.20;;;;;;4928082;29;20534;-74
2021/11/12 02:19:52;;;;;;;1.70;1.60;;;2.80;98.20;;;;;;4934532;29;20582;-75
2021/11/12 02:22:23;;;;;;;2.17;1.97;;;2.80;98.20;;;;;;4933126;29;21065;-74
2021/11/12 02:24:52;;;;;;;1.67;1.50;;;2.80;98.20;;;;;;4932595;29;20484;-75
2021/11/12 02:27:22;;;;;;;1.70;1.50;;;2.80;98.20;;;;;;4929898;29;20476;-75
2021/11/12 02:29:51;;;;;;;1.63;1.50;;;2.80;98.20;;;;;;4927911;29;20526;-74
2021/11/12 02:32:21;;;;;;;1.70;1.50;;;2.90;98.20;;;;;;4932701;29;20479;-74
2021/11/12 02:34:51;;;;;;;1.70;1.60;;;2.90;98.20;;;;;;4928946;29;20986;-75
2021/11/12 02:37:19;;;;;;;1.90;1.80;;;2.90;98.20;;;;;;4932478;29;20464;-74
2021/11/12 02:39:47;;;;;;;1.60;1.50;;;3.00;98.20;;;;;;4932693;29;20494;-74
2021/11/12 02:42:15;;;;;;;5.10;4.80;;;3.00;98.20;;;;;;4933210;29;20480;-73
2021/11/12 02:44:43;;;;;;;1.80;1.70;;;3.10;98.20;;;;;;4929251;29;21014;-72
2021/11/12 02:47:10;;;;;;;1.90;1.80;;;3.10;98.20;;;;;;4929630;29;20477;-74
2021/11/12 02:49:38;;;;;;;1.60;1.47;;;3.10;98.20;;;;;;4917968;29;20471;-74
2021/11/12 02:52:06;;;;;;;1.67;1.50;;;3.10;98.20;;;;;;4931038;29;20463;-74
2021/11/12 02:54:34;;;;;;;1.67;1.50;;;3.10;98.20;;;;;;4932046;29;21011;-74
2021/11/12 02:57:02;;;;;;;1.67;1.50;;;3.20;98.20;;;;;;4930795;29;20463;-74
2021/11/12 02:59:29;;;;;;;1.70;1.50;;;3.20;98.20;;;;;;4931516;29;20471;-74
2021/11/12 03:02:02;;;;;;;1.63;1.50;;;3.20;98.20;;;;;;4932057;29;20479;-73
2021/11/12 03:04:29;;;;;;;1.60;1.40;;;3.20;98.20;;;;;;4932027;29;20925;-74
2021/11/12 03:06:57;;;;;;;1.70;1.60;;;3.20;98.20;;;;;;4931887;29;20471;-73
2021/11/12 03:09:25;;;;;;;1.70;1.60;;;3.20;98.20;;;;;;4932371;29;20530;-74
2021/11/12 03:11:54;;;;;;;1.60;1.50;;;3.20;98.20;;;;;;4927245;29;20471;-74
2021/11/12 03:14:21;;;;;;;1.70;1.50;;;3.20;98.20;;;;;;4925551;28;20527;-74
2021/11/12 03:16:48;;;;;;;1.63;1.50;;;3.20;98.20;;;;;;4925575;29;20926;-74
2021/11/12 03:19:15;;;;;;;2.57;2.37;;;3.20;98.20;;;;;;4927655;29;20467;-74
2021/11/12 03:21:43;;;;;;;1.93;1.83;;;3.20;98.20;;;;;;4930807;29;20495;-73
2021/11/12 03:24:16;;;;;;;1.67;1.50;;;3.20;98.20;;;;;;4931482;29;20492;-75
2021/11/12 03:26:47;;;;;;;1.60;1.50;;;3.20;98.20;;;;;;4921590;29;20955;-75
2021/11/12 04:02:43;;;;;;;1.63;1.43;;;3.60;98.20;;;;;;4853409;29;20993;-75
2021/11/12 04:05:29;;;;;;;1.70;1.50;;;3.60;98.20;;;;;;4919579;29;20497;-75
2021/11/12 04:19:00;;;;;;;1.60;1.50;;;3.80;98.20;;;;;;4939525;29;20630;-73
2021/11/12 04:41:01;;;;;;;1.67;1.50;;;3.90;98.20;;;;;;4951689;29;20839;-74
2021/11/12 05:03:13;;;;;;;1.67;1.40;;;3.90;98.20;;;;;;4930230;29;20483;-73
2021/11/12 05:11:25;;;;;;;1.60;1.40;;;4.00;98.20;;;;;;4938752;29;21032;-75
2021/11/12 05:44:11;;;;;;;1.70;1.50;;;4.40;98.20;;;;;;4933435;29;20537;-74
2021/11/12 05:46:42;;;;;;;1.63;1.40;;;4.40;98.20;;;;;;4928046;29;20475;-74
2021/11/12 05:52:12;;;;;;;1.67;1.40;;;4.50;98.20;;;;;;4932408;29;20478;-75
2021/11/12 05:57:28;;;;;;;1.70;1.50;;;4.50;98.20;;;;;;4927120;29;20443;-75
2021/11/12 05:59:55;;;;;;;1.70;1.40;;;4.50;98.20;;;;;;4932410;29;20511;-75
2021/11/12 06:02:22;;;;;;;2.63;2.23;;;4.50;98.20;;;;;;4939212;29;20481;-75
2021/11/12 06:04:50;;;;;;;1.60;1.30;;;4.50;98.20;;;;;;4950107;28;20495;-73
2021/11/12 06:07:16;;;;;;;1.63;1.40;;;4.50;98.20;;;;;;4973033;23;20670;-76
2021/11/12 06:09:44;;;;;;;1.63;1.33;;;4.50;98.20;;;;;;4951349;28;20467;-76
2021/11/12 06:12:12;;;;;;;1.70;1.57;;;4.60;98.20;;;;;;4952829;28;21021;-75
2021/11/12 06:14:40;;;;;;;1.70;1.50;;;4.50;98.20;;;;;;4952330;28;20553;-76
2021/11/12 06:17:07;;;;;;;2.47;2.27;;;4.60;98.20;;;;;;4948000;28;20483;-74
2021/11/12 06:19:34;;;;;;;1.63;1.40;;;4.60;98.20;;;;;;4953082;28;20463;-73
2021/11/12 06:22:01;;;;;;;1.60;1.40;;;4.60;98.20;;;;;;4948181;29;20500;-75
2021/11/12 06:24:29;;;;;;;1.67;1.40;;;4.60;98.20;;;;;;4947670;29;20550;-76
2021/11/12 06:26:56;;;;;;;1.70;1.50;;;4.60;98.20;;;;;;4947524;28;20985;-75
2021/11/12 06:29:24;;;;;;;1.70;1.50;;;4.60;98.20;;;;;;4949505;29;20467;-74
2021/11/12 06:31:52;;;;;;;1.63;1.40;;;4.60;98.20;;;;;;4951830;29;20465;-76
2021/11/12 06:34:19;;;;;;;1.63;1.40;;;4.70;98.20;;;;;;4951795;29;20473;-74
2021/11/12 06:36:47;;;;;;;3.30;3.00;;;4.70;98.20;;;;;;4951648;29;20805;-74
2021/11/12 06:39:14;;;;;;;1.60;1.30;;;4.70;98.20;;;;;;4950784;28;20465;-74
2021/11/12 06:41:55;;;;;;;1.67;1.40;;;4.70;98.20;;;;;;4950295;29;20541;-76
2021/11/12 06:49:59;;;;;;;1.60;1.50;;;4.70;98.20;;;;;;4949896;28;20994;-74
2021/11/12 06:52:31;;;;;;;1.60;1.40;;;4.70;98.20;;;;;;4953564;28;20466;-76
2021/11/12 06:55:03;;;;;;;1.70;1.50;;;4.70;98.20;;;;;;4947652;29;20990;-76
2021/11/12 06:57:30;;;;;;;1.70;1.40;;;4.70;98.20;;;;;;4944722;28;20483;-74
2021/11/12 06:59:57;;;;;;;1.60;1.37;;;4.80;98.20;;;;;;4947395;28;20474;-73
2021/11/12 07:02:27;;;;;;;1.67;1.50;;;4.80;98.20;;;;;;4951872;28;20837;-74
2021/11/12 07:04:55;;;;;;;1.60;1.40;;;4.80;98.20;;;;;;4950930;29;20499;-73
2021/11/12 07:07:23;;;;;;;1.60;1.40;;;4.80;98.20;;;;;;4949422;28;21065;-73
2021/11/12 07:09:51;;;;;;;1.60;1.47;;;4.80;98.20;;;;;;4951705;28;20463;-74
2021/11/12 07:12:18;;;;;;;1.63;1.40;;;4.80;98.20;;;;;;4948655;29;20502;-74
2021/11/12 07:14:46;;;;;;;1.60;1.50;;;4.80;98.20;;;;;;4948177;29;20546;-73
2021/11/12 07:17:16;;;;;;;1.60;1.40;;;4.80;98.20;;;;;;4949429;28;21037;-74
2021/11/12 07:19:45;;;;;;;1.60;1.40;;;4.80;98.20;;;;;;4951514;28;20522;-73
2021/11/12 07:22:12;;;;;;;1.67;1.40;;;4.80;98.20;;;;;;4950050;28;20491;-74
2021/11/12 07:24:39;;;;;;;1.60;1.30;;;4.80;98.20;;;;;;4950279;28;20887;-74
2021/11/12 07:27:08;;;;;;;1.63;1.40;;;4.70;98.20;;;;;;4948740;28;20766;-74
2021/11/12 07:29:37;;;;;;;1.67;1.40;;;4.70;98.20;;;;;;4950825;28;20471;-73
2021/11/12 07:32:06;;;;;;;2.33;2.13;;;4.70;98.20;;;;;;4948396;29;20518;-74
2021/11/12 07:34:33;;;;;;;1.67;1.40;;;4.70;98.20;;;;;;4951827;28;20533;-74
2021/11/12 07:37:07;;;;;;;1.70;1.53;;;4.70;98.20;;;;;;4934533;28;20483;-74
2021/11/12 07:39:47;;;;;;;2.47;2.27;;;4.60;98.20;;;;;;4938495;28;20466;-74
2021/11/12 07:42:23;;;;;;;1.60;1.40;;;4.70;98.20;;;;;;4944652;28;20597;-73
2021/11/12 07:45:00;;;;;;;1.67;1.43;;;4.70;98.20;;;;;;4941287;28;20485;-73
2021/11/12 07:47:47;;;;;;;1.67;1.40;;;4.70;98.20;;;;;;4937946;28;20505;-75
2021/11/12 07:50:21;;;;;;;1.70;1.43;;;4.70;98.20;;;;;;4939638;28;20653;-74
2021/11/12 07:52:51;;;;;;;1.70;1.50;;;4.70;98.20;;;;;;4944410;28;20504;-74
2021/11/12 07:56:04;;;;;;;1.73;1.63;;;4.70;98.20;;;;;;4941633;28;20841;-75
2021/11/12 07:58:41;;;;;;;1.60;1.40;;;4.70;98.20;;;;;;4939946;28;21131;-74
2021/11/12 08:01:08;;;;;;;1.60;1.40;;;4.70;98.20;;;;;;4942918;28;20489;-74
2021/11/12 08:03:35;;;;;;;1.67;1.50;;;4.70;98.20;;;;;;4941457;28;20486;-74
2021/11/12 08:06:05;;;;;;;1.60;1.40;;;4.70;98.20;;;;;;4940830;28;20572;-74
2021/11/12 08:08:36;;;;;;;1.67;1.47;;;4.70;98.20;;;;;;4939898;28;20502;-75
2021/11/12 08:11:12;;;;;;;1.63;1.40;;;4.70;98.20;;;;;;4934431;28;20759;-75
2021/11/12 08:13:46;;;;;;;1.60;1.37;;;4.70;98.20;;;;;;4937430;28;20562;-74
2021/11/12 08:16:30;;;;;;;1.70;1.50;;;4.80;98.20;;;;;;4942656;28;20470;-74
2021/11/12 08:19:05;;;;;;;1.63;1.40;;;4.80;98.20;;;;;;4938640;28;20466;-74
2021/11/12 08:21:38;;;;;;;1.70;1.60;;;4.90;98.20;;;;;;4941351;28;20597;-74
2021/11/12 08:24:11;;;;;;;1.80;1.63;;;4.90;98.20;;;;;;4947153;28;20516;-74
2021/11/12 08:26:48;;;;;;;1.60;1.40;;;4.90;98.20;;;;;;4945006;28;20553;-74
2021/11/12 08:32:18;;;;;;;1.70;1.50;;;4.90;98.20;;;;;;4943631;28;20467;-74
2021/11/12 08:34:53;;;;;;;1.63;1.40;;;4.90;98.20;;;;;;4942836;28;20482;-73
2021/11/12 08:37:30;;;;;;;1.60;1.30;;;5.00;98.20;;;;;;4943794;28;20502;-74
2021/11/12 08:40:10;;;;;;;1.60;1.30;;;5.00;98.20;;;;;;4943980;28;20988;-74
2021/11/12 08:42:41;;;;;;;1.67;1.40;;;5.00;98.20;;;;;;4943216;28;20498;-74
2021/11/12 08:45:45;;;;;;;1.67;1.40;;;5.10;98.20;;;;;;4941049;28;20697;-73
2021/11/12 08:48:17;;;;;;;1.63;1.30;;;5.20;98.20;;;;;;4937377;28;20505;-74
2021/11/12 08:50:44;;;;;;;1.63;1.30;;;5.20;98.20;;;;;;4942544;28;20486;-74
2021/11/12 08:53:15;;;;;;;1.93;1.73;;;5.20;98.20;;;;;;4943281;28;20474;-74
2021/11/12 08:55:45;;;;;;;1.73;1.63;;;5.10;98.20;;;;;;4941679;28;20529;-75
2021/11/12 08:58:17;;;;;;;1.67;1.40;;;5.20;98.20;;;;;;4938530;28;20521;-74
2021/11/12 09:00:45;;;;;;;1.70;1.50;;;5.20;98.20;;;;;;4932202;28;20679;-74
2021/11/12 09:03:13;;;;;;;1.97;1.77;;;5.30;98.20;;;;;;4932127;28;20514;-73
2021/11/12 09:05:39;;;;;;;1.63;1.40;;;5.30;98.20;;;;;;4938726;28;21071;-74
2021/11/12 09:08:09;;;;;;;1.67;1.40;;;5.40;98.20;;;;;;4937577;28;20502;-74
2021/11/12 09:10:40;;;;;;;1.60;1.40;;;5.40;98.20;;;;;;4944249;28;20493;-75
2021/11/12 09:13:18;;;;;;;1.77;1.57;;;5.50;98.20;;;;;;4939212;28;21038;-74
2021/11/12 09:15:49;;;;;;;1.60;1.40;;;5.50;98.20;;;;;;4944841;28;20479;-74
2021/11/12 09:18:18;;;;;;;1.80;1.50;;;5.60;98.20;;;;;;4938310;28;20897;-74
2021/11/12 16:09:44;;;;;;;3.10;1.77;;;8.30;98.20;;;;;;4835169;29;20572;-71
2021/11/12 16:12:25;;;;;;;1.60;1.23;;;8.20;98.20;;;;;;4833581;29;20858;-72
2021/11/12 16:17:44;;;;;;;1.70;1.30;;;8.10;98.20;;;;;;4887627;29;21010;-76
2021/11/12 16:20:35;;;;;;;1.60;1.20;;;8.10;98.20;;;;;;4890082;29;20476;-74
2021/11/12 16:23:28;;;;;;;1.60;1.20;;;8.10;98.20;;;;;;4892830;29;20594;-72
2021/11/12 16:25:57;;;;;;;1.60;1.30;;;8.10;98.20;;;;;;4886163;29;20466;-73
2021/11/12 16:28:25;;;;;;;1.70;1.40;;;8.00;98.20;;;;;;4891071;29;20497;-74
2021/11/12 16:30:57;;;;;;;1.60;1.27;;;8.00;98.20;;;;;;4889767;29;20521;-74
2021/11/12 16:33:25;;;;;;;1.60;1.20;;;8.00;98.20;;;;;;4888777;29;20472;-74
2021/11/12 16:35:55;;;;;;;1.60;1.30;;;7.90;98.20;;;;;;4891932;29;20649;-74
2021/11/12 16:38:27;;;;;;;1.60;1.20;;;7.90;98.20;;;;;;4892911;29;20500;-72
2021/11/12 16:41:00;;;;;;;1.60;1.30;;;7.90;98.20;;;;;;4889533;29;20481;-73
2021/11/12 16:43:34;;;;;;;1.60;1.30;;;7.80;98.20;;;;;;4889811;29;20492;-71
2021/11/12 16:46:15;;;;;;;1.60;1.30;;;7.80;98.20;;;;;;4894750;29;20512;-72
2021/11/12 16:48:48;;;;;;;1.60;1.30;;;7.80;98.20;;;;;;4892706;29;20872;-72
2021/11/12 16:51:34;;;;;;;1.60;1.30;;;7.70;98.20;;;;;;4891119;29;20567;-73
2021/11/12 16:54:14;;;;;;;1.60;1.30;;;7.70;98.20;;;;;;4887080;29;20568;-71
2021/11/12 16:56:56;;;;;;;1.60;1.30;;;7.70;98.20;;;;;;4891948;29;20614;-74
2021/11/12 16:59:25;;;;;;;1.60;1.30;;;7.60;98.20;;;;;;4893313;29;20954;-73
2021/11/12 17:02:17;;;;;;;1.60;1.30;;;7.60;98.20;;;;;;4892358;29;22974;-74
2021/11/12 17:04:57;;;;;;;1.63;1.40;;;7.50;98.20;;;;;;4888731;29;20491;-72
2021/11/12 17:07:37;;;;;;;1.60;1.30;;;7.50;98.20;;;;;;4890734;29;20947;-72
2021/11/12 17:10:12;;;;;;;2.33;2.13;;;7.50;98.20;;;;;;4890646;29;20744;-73
2021/11/12 17:15:36;;;;;;;1.63;1.47;;;7.40;98.20;;;;;;4891792;29;20845;-72
2021/11/12 17:18:13;;;;;;;11.73;9.70;;;7.40;98.20;;;;;;4891626;29;20509;-72
2021/11/12 17:48:30;;;;;;;1.60;1.20;;;7.00;98.20;;;;;;4890201;29;21118;-73
2021/11/12 17:51:15;;;;;;;1.63;1.40;;;7.00;98.20;;;;;;4889068;29;20568;-73
2021/11/12 18:02:08;;;;;;;1.60;1.30;;;6.80;98.20;;;;;;4894144;29;20670;-74
2021/11/12 18:04:50;;;;;;;1.60;1.40;;;6.70;98.20;;;;;;4891186;29;20966;-74
2021/11/12 18:07:29;;;;;;;1.60;1.40;;;6.70;98.20;;;;;;4891757;29;20504;-73
2021/11/12 21:44:58;;;;;;;1.90;1.67;;;6.30;98.20;;;;;;4853913;29;20669;-75
2021/11/12 21:47:25;;;;;;;1.67;1.30;;;6.30;98.20;;;;;;4852407;29;20498;-75
2021/11/12 21:49:53;;;;;;;1.60;1.50;;;6.40;98.20;;;;;;4889060;29;20476;-75
2021/11/12 21:52:21;;;;;;;1.63;1.40;;;6.40;98.20;;;;;;4893764;29;20480;-73
2021/11/12 21:54:48;;;;;;;1.63;1.33;;;6.40;98.20;;;;;;4895372;29;20469;-73
2021/11/12 21:57:15;;;;;;;1.60;1.40;;;6.50;98.20;;;;;;4890804;29;20885;-72
2021/11/12 21:59:46;;;;;;;1.67;1.33;;;6.50;98.20;;;;;;4890388;29;20473;-72
2021/11/12 22:02:15;;;;;;;1.60;1.30;;;6.50;98.20;;;;;;4890206;29;20529;-72
2021/11/12 22:04:43;;;;;;;1.60;1.40;;;6.50;98.20;;;;;;4891872;29;20476;-73
2021/11/12 22:07:15;;;;;;;1.93;1.73;;;6.50;98.20;;;;;;4890162;29;20497;-73
2021/11/12 22:09:47;;;;;;;1.90;1.40;;;6.60;98.20;;;;;;4890987;29;20882;-73
2021/11/12 22:12:14;;;;;;;1.60;1.37;;;6.60;98.20;;;;;;4889616;29;20473;-72
2021/11/12 22:14:41;;;;;;;1.60;1.30;;;6.60;98.20;;;;;;4888893;29;20480;-71
2021/11/12 22:17:09;;;;;;;1.77;1.50;;;6.60;98.20;;;;;;4888436;29;20492;-73
2021/11/12 22:19:36;;;;;;;1.60;1.30;;;6.60;98.20;;;;;;4888808;29;20473;-73
2021/11/12 22:22:03;;;;;;;2.50;2.30;;;6.60;98.20;;;;;;4891493;29;20480;-74
2021/11/12 22:24:30;;;;;;;1.60;1.30;;;6.60;98.20;;;;;;4889768;29;20473;-75
2021/11/12 22:26:58;;;;;;;1.60;1.30;;;6.60;98.20;;;;;;4891448;29;20529;-71
2021/11/12 22:29:25;;;;;;;2.07;1.87;;;6.60;98.20;;;;;;4895213;29;20943;-74
2021/11/12 22:31:52;;;;;;;1.60;1.30;;;6.60;98.20;;;;;;4902918;29;20469;-74
2021/11/12 22:34:19;;;;;;;1.60;1.40;;;6.70;98.20;;;;;;4904372;29;20469;-74
2021/11/12 22:36:46;;;;;;;1.60;1.30;;;6.60;98.20;;;;;;4905052;29;20996;-74
2021/11/12 22:39:13;;;;;;;1.93;1.73;;;6.60;98.20;;;;;;4904459;29;20563;-71
2021/11/12 22:41:40;;;;;;;2.53;2.33;;;6.60;98.20;;;;;;4902071;29;20476;-72
2021/11/12 22:44:10;;;;;;;2.63;2.43;;;6.50;98.20;;;;;;4899704;29;20512;-71
2021/11/12 22:46:37;;;;;;;1.60;1.40;;;6.50;98.20;;;;;;4907466;29;20850;-72
2021/11/12 22:49:05;;;;;;;1.70;1.50;;;6.40;98.20;;;;;;4898647;29;20481;-71
2021/11/12 22:51:32;;;;;;;1.63;1.30;;;6.40;98.20;;;;;;4908465;29;20499;-71
2021/11/12 22:53:59;;;;;;;2.27;1.40;;;6.40;98.20;;;;;;4904373;29;20495;-71
2021/11/12 22:56:26;;;;;;;2.23;2.03;;;6.30;98.20;;;;;;4904372;29;20563;-71
2021/11/12 22:58:54;;;;;;;1.67;1.30;;;6.30;98.20;;;;;;4902673;29;20485;-72
2021/11/12 23:01:25;;;;;;;1.60;1.30;;;6.30;98.20;;;;;;4905645;29;20840;-71
2021/11/12 23:03:52;;;;;;;1.60;1.30;;;6.40;98.20;;;;;;4901357;29;20501;-72
2021/11/12 23:06:19;;;;;;;1.60;1.40;;;6.30;98.20;;;;;;4902742;29;20468;-72
2021/11/12 23:08:46;;;;;;;1.63;1.50;;;6.30;98.20;;;;;;4910943;29;20471;-73
2021/11/12 23:11:13;;;;;;;1.60;1.40;;;6.30;98.20;;;;;;4907795;29;20531;-72
2021/11/12 23:13:41;;;;;;;1.60;1.30;;;6.20;98.20;;;;;;4911867;29;21069;-73
2021/11/12 23:16:08;;;;;;;1.60;1.40;;;6.20;98.20;;;;;;4910114;29;20504;-73
2021/11/12 23:18:37;;;;;;;1.70;1.50;;;6.20;98.20;;;;;;4910562;29;20464;-72
2021/11/12 23:21:05;;;;;;;3.00;2.80;;;6.20;98.20;;;;;;4911593;29;20475;-72
2021/11/12 23:23:34;;;;;;;3.50;3.20;;;6.10;98.20;;;;;;4912369;29;20492;-72
2021/11/12 23:26:01;;;;;;;1.60;1.40;;;6.10;98.20;;;;;;4906171;29;20967;-72
2021/11/12 23:28:28;;;;;;;1.60;1.30;;;6.10;98.20;;;;;;4910243;29;20488;-72
2021/11/12 23:30:55;;;;;;;1.60;1.30;;;6.10;98.20;;;;;;4908515;29;20464;-72
2021/11/12 23:33:22;;;;;;;1.60;1.30;;;6.10;98.20;;;;;;4911749;29;21131;-72
2021/11/12 23:35:51;;;;;;;1.60;1.30;;;6.20;98.20;;;;;;4912727;29;20852;-72
2021/11/12 23:38:18;;;;;;;1.60;1.30;;;6.20;98.20;;;;;;4912797;29;20496;-72
2021/11/12 23:40:45;;;;;;;1.63;1.43;;;6.20;98.20;;;;;;4912744;29;20986;-72
2021/11/12 23:43:12;;;;;;;1.60;1.37;;;6.20;98.20;;;;;;4912967;29;20489;-73
2021/11/12 23:45:38;;;;;;;1.73;1.63;;;6.20;98.20;;;;;;4914084;29;20472;-72
2021/11/12 23:48:06;;;;;;;1.60;1.30;;;6.20;98.20;;;;;;4915886;29;20588;-72
2021/11/12 23:50:33;;;;;;;4.27;3.87;;;6.20;98.20;;;;;;4916531;29;20960;-72
2021/11/12 23:53:01;;;;;;;1.60;1.30;;;6.20;98.20;;;;;;4916386;29;20465;-73
2021/11/12 23:55:28;;;;;;;1.80;1.70;;;6.30;98.20;;;;;;4914557;29;20970;-72
2021/11/12 23:57:56;;;;;;;1.60;1.30;;;6.30;98.20;;;;;;4914173;29;21440;-72
